createdAt,value
2019-01-09T00:06:55.351Z,100426.74
2019-01-09T00:12:17.523Z,100555.75
2019-01-09T00:17:20.206Z,100544.63
2019-01-09T00:22:42.394Z,100555.52
2019-01-09T00:28:04.587Z,100570.38
2019-01-09T00:33:26.799Z,100572.89
2019-01-09T00:38:49.005Z,100569.11
2019-01-09T00:44:11.207Z,100582.29
2019-01-09T00:49:33.428Z,100582.70
2019-01-09T00:54:48.424Z,100578.91
2019-01-09T00:59:51.107Z,100585.00
2019-01-09T01:06:10.349Z,100589.76
2019-01-09T01:12:11.650Z,100582.00
2019-01-09T01:18:28.973Z,100584.66
2019-01-09T01:24:15.942Z,100596.36
2019-01-09T01:30:03.095Z,100320.84
2019-01-09T01:36:04.349Z,100614.86
2019-01-09T01:41:33.970Z,100249.86
2019-01-09T01:47:25.185Z,100614.44
2019-01-09T01:53:02.220Z,100626.57
2019-01-09T01:58:47.499Z,100523.88
2019-01-09T02:04:34.896Z,100632.33
2019-01-09T02:10:36.066Z,100640.10
2019-01-09T02:16:40.061Z,100664.23
2019-01-09T02:22:41.253Z,100650.91
2019-01-09T02:28:30.078Z,100665.95
2019-01-09T02:33:52.256Z,100652.77
2019-01-09T02:39:14.437Z,100411.81
2019-01-09T02:44:36.604Z,100680.00
2019-01-09T02:49:58.799Z,100701.58
2019-01-09T02:55:14.310Z,100442.05
2019-01-09T03:00:36.602Z,100693.56
2019-01-09T03:05:58.784Z,100589.84
2019-01-09T03:11:20.960Z,100702.14
2019-01-09T03:16:43.153Z,100586.38
2019-01-09T03:22:05.329Z,100709.58
2019-01-09T03:27:27.525Z,100707.63
2019-01-09T03:32:49.713Z,100337.89
2019-01-09T03:38:11.880Z,100717.28
2019-01-09T03:43:14.546Z,100736.98
2019-01-09T03:48:18.059Z,100745.89
2019-01-09T03:53:33.301Z,100761.63
2019-01-09T04:04:12.304Z,100763.41
2019-01-09T04:09:35.303Z,100496.70
2019-01-09T04:14:38.032Z,100736.77
2019-01-09T04:20:00.376Z,100750.98
2019-01-09T04:25:22.553Z,100770.39
2019-01-09T04:30:44.737Z,100755.47
2019-01-09T04:36:06.908Z,100459.03
2019-01-09T04:41:29.075Z,100764.48
2019-01-09T04:46:51.251Z,100759.95
2019-01-09T04:52:13.416Z,100791.88
2019-01-09T04:57:28.475Z,100611.06
2019-01-09T05:02:50.648Z,100655.97
2019-01-09T05:08:12.835Z,100775.88
2019-01-09T05:13:35.000Z,100773.58
2019-01-09T05:18:37.684Z,100591.50
2019-01-09T05:23:40.346Z,100775.00
2019-01-09T05:29:04.252Z,100780.47
2019-01-09T05:34:46.957Z,100804.80
2019-01-09T05:40:09.257Z,100781.00
2019-01-09T05:45:11.911Z,100814.77
2019-01-09T05:50:34.141Z,100803.64
2019-01-09T05:55:50.023Z,100802.28
2019-01-09T06:01:12.199Z,100792.92
2019-01-09T06:06:14.873Z,100799.41
2019-01-09T06:11:37.051Z,100805.00
2019-01-09T06:16:59.221Z,100815.89
2019-01-09T06:22:21.392Z,100816.64
2019-01-09T06:27:43.600Z,100815.83
2019-01-09T06:32:46.269Z,100837.02
2019-01-09T06:38:08.450Z,100830.53
2019-01-09T06:43:30.618Z,100838.26
2019-01-09T06:48:52.784Z,100862.56
2019-01-09T06:54:08.059Z,100856.82
2019-01-09T06:59:30.288Z,100579.70
2019-01-09T07:04:52.461Z,100589.28
2019-01-09T07:10:14.642Z,100888.46
2019-01-09T07:15:17.310Z,100593.69
2019-01-09T07:20:39.507Z,100893.09
2019-01-09T07:26:01.674Z,100900.44
2019-01-09T07:31:23.856Z,100913.39
2019-01-09T07:36:46.049Z,100864.13
2019-01-09T07:41:48.722Z,100925.37
2019-01-09T07:47:10.896Z,100922.05
2019-01-09T07:52:33.110Z,100932.33
2019-01-09T07:57:55.285Z,100922.98
2019-01-09T08:02:57.966Z,100935.03
2019-01-09T08:08:00.674Z,100936.36
2019-01-09T08:13:22.838Z,100944.65
2019-01-09T08:18:45.402Z,100936.44
2019-01-09T08:24:07.632Z,100688.44
2019-01-09T08:29:29.814Z,100972.83
2019-01-09T08:34:32.513Z,100717.22
2019-01-09T08:39:35.181Z,100974.55
2019-01-09T08:49:59.955Z,101007.36
2019-01-09T08:55:15.340Z,100996.43
2019-01-09T09:00:37.908Z,100998.10
2019-01-09T09:05:42.021Z,101019.61
2019-01-09T09:10:45.369Z,101010.23
2019-01-09T09:15:48.700Z,101006.67
2019-01-09T09:21:10.851Z,101004.95
2019-01-09T09:26:14.002Z,101029.49
2019-01-09T09:31:36.189Z,101025.95
2019-01-09T09:36:39.107Z,101027.69
2019-01-09T09:42:01.283Z,101034.61
2019-01-09T09:47:23.460Z,100789.29
2019-01-09T09:52:45.666Z,101038.84
2019-01-09T09:57:48.355Z,101046.55
2019-01-09T10:03:10.539Z,101060.96
2019-01-09T10:08:13.409Z,101078.25
2019-01-09T10:13:16.106Z,101060.84
2019-01-09T10:18:18.781Z,101060.76
2019-01-09T10:23:40.996Z,101075.84
2019-01-09T10:28:43.758Z,101083.09
2019-01-09T10:34:05.952Z,101087.14
2019-01-09T10:39:28.132Z,101107.44
2019-01-09T10:44:50.491Z,100727.31
2019-01-09T10:55:55.788Z,100927.72
2019-01-09T11:00:58.457Z,101105.33
2019-01-09T11:06:20.640Z,101092.47
2019-01-09T11:11:42.822Z,101102.52
2019-01-09T11:17:05.224Z,101103.89
2019-01-09T11:22:27.415Z,101134.19
2019-01-09T11:27:49.589Z,101099.55
2019-01-09T11:33:11.794Z,100861.52
2019-01-09T11:38:33.982Z,101126.83
2019-01-09T11:43:56.151Z,101101.29
2019-01-09T11:49:18.329Z,100702.08
2019-01-09T11:54:21.025Z,100978.17
2019-01-09T11:59:23.712Z,101108.64
2019-01-09T12:05:07.277Z,101109.61
2019-01-09T12:10:30.406Z,101122.19
2019-01-09T12:15:34.145Z,101119.02
2019-01-09T12:20:56.312Z,101120.67
2019-01-09T12:26:18.492Z,101123.38
2019-01-09T12:31:40.697Z,101121.61
2019-01-09T12:37:02.886Z,101155.49
2019-01-09T12:42:05.560Z,100721.47
2019-01-09T12:47:08.229Z,101149.03
2019-01-09T12:52:30.684Z,101148.11
2019-01-09T12:57:45.794Z,101043.58
2019-01-09T13:03:07.976Z,101186.73
2019-01-09T13:08:30.171Z,100936.77
2019-01-09T13:13:32.905Z,101187.11
2019-01-09T13:18:35.597Z,101180.72
2019-01-09T13:23:57.782Z,101195.31
2019-01-09T13:29:19.956Z,100838.70
2019-01-09T13:34:42.135Z,101196.61
2019-01-09T13:40:06.274Z,101222.56
2019-01-09T13:45:28.648Z,101237.31
2019-01-09T13:50:50.824Z,101242.12
2019-01-09T13:56:06.499Z,101246.46
2019-01-09T14:01:09.174Z,101242.92
2019-01-09T14:06:31.371Z,101250.36
2019-01-09T14:11:53.552Z,101261.17
2019-01-09T14:17:15.741Z,101279.36
2019-01-09T14:22:37.906Z,101281.13
2019-01-09T14:28:01.517Z,101275.02
2019-01-09T14:33:24.186Z,101305.78
2019-01-09T14:38:46.369Z,101279.36
2019-01-09T14:43:49.075Z,101290.27
2019-01-09T14:49:11.256Z,101285.51
2019-01-09T14:54:26.412Z,101288.10
2019-01-09T14:59:48.593Z,101287.23
2019-01-09T15:05:10.879Z,100935.27
2019-01-09T15:10:33.042Z,101311.90
2019-01-09T15:15:56.663Z,101312.76
2019-01-09T15:21:19.292Z,101320.58
2019-01-09T15:26:41.474Z,101322.75
2019-01-09T15:32:03.762Z,101326.20
2019-01-09T15:37:25.937Z,101038.30
2019-01-09T15:42:48.420Z,101284.75
2019-01-09T15:47:51.082Z,101334.84
2019-01-09T15:53:06.460Z,101333.94
2019-01-09T15:58:46.333Z,101340.95
2019-01-09T16:03:49.085Z,101347.84
2019-01-09T16:08:51.756Z,101339.97
2019-01-09T16:14:13.906Z,101354.75
2019-01-09T16:19:16.602Z,101361.64
2019-01-09T16:24:19.289Z,101346.96
2019-01-09T16:29:41.461Z,101352.56
2019-01-09T16:35:03.960Z,101354.33
2019-01-09T16:40:26.178Z,101356.91
2019-01-09T16:45:48.383Z,101390.20
2019-01-09T16:51:10.574Z,101081.89
2019-01-09T16:56:25.659Z,101401.89
2019-01-09T17:01:47.825Z,101386.76
2019-01-09T17:07:10.058Z,101381.98
2019-01-09T17:12:32.243Z,101311.13
2019-01-09T17:17:54.415Z,101397.98
2019-01-09T17:23:16.587Z,101161.23
2019-01-09T17:28:19.250Z,101415.30
2019-01-09T17:33:21.939Z,101431.28
2019-01-09T17:38:24.610Z,101441.69
2019-01-09T17:43:46.875Z,101444.70
2019-01-09T17:49:09.092Z,101186.25
2019-01-09T17:54:24.800Z,101335.73
2019-01-09T17:59:27.453Z,101462.03
2019-01-09T18:04:49.838Z,101473.69
2019-01-09T18:10:24.998Z,101182.34
2019-01-09T18:15:47.379Z,101514.78
2019-01-09T18:21:09.784Z,101498.34
2019-01-09T18:26:12.482Z,101493.16
2019-01-09T18:32:16.672Z,101507.00
2019-01-09T18:38:18.416Z,101514.33
2019-01-09T18:44:19.584Z,101517.39
2019-01-09T18:50:13.488Z,101524.30
2019-01-09T18:55:29.426Z,101541.16
2019-01-09T19:00:51.604Z,101542.88
2019-01-09T19:06:13.789Z,101545.08
2019-01-09T19:11:35.974Z,101547.66
2019-01-09T19:16:58.426Z,101558.06
2019-01-09T19:22:24.016Z,101571.47
2019-01-09T19:27:29.019Z,101205.11
2019-01-09T19:32:51.860Z,101564.95
2019-01-09T19:38:14.146Z,101569.72
2019-01-09T19:43:36.354Z,101583.13
2019-01-09T19:48:58.680Z,101524.14
2019-01-09T19:54:14.480Z,101622.47
2019-01-09T19:59:36.660Z,101606.03
2019-01-09T20:04:39.821Z,101618.12
2019-01-09T20:09:42.703Z,101607.36
2019-01-09T20:15:06.359Z,101620.30
2019-01-09T20:20:28.613Z,101631.09
2019-01-09T20:25:50.842Z,101398.52
2019-01-09T20:31:13.030Z,101652.73
2019-01-09T20:36:35.287Z,101653.20
2019-01-09T20:41:57.532Z,101366.83
2019-01-09T20:47:00.282Z,101273.41
2019-01-09T20:52:22.511Z,101660.11
2019-01-09T20:57:38.692Z,101678.69
2019-01-09T21:03:03.640Z,101704.68
2019-01-09T21:08:25.912Z,101296.38
2019-01-09T21:13:48.153Z,101678.31
2019-01-09T21:19:10.482Z,101686.47
2019-01-09T21:24:32.655Z,101688.27
2019-01-09T21:29:35.371Z,101727.11
2019-01-09T21:34:57.539Z,101691.66
2019-01-09T21:40:22.294Z,101715.42
2019-01-09T21:45:44.513Z,101697.59
2019-01-09T21:51:06.996Z,101703.61
2019-01-09T21:56:09.702Z,101716.26
2019-01-09T22:17:12.778Z,101737.72
2019-01-09T22:22:15.483Z,101764.12
2019-01-09T22:27:37.663Z,101749.32
2019-01-09T22:32:59.858Z,101754.98
2019-01-09T22:38:22.217Z,101639.06
2019-01-09T22:43:44.527Z,101769.65
2019-01-09T22:49:06.718Z,101799.95
2019-01-09T22:54:09.414Z,101803.37
2019-01-09T22:59:31.590Z,101788.67
2019-01-09T23:04:53.758Z,101790.31
2019-01-09T23:10:16.052Z,101792.98
2019-01-09T23:15:38.246Z,101686.98
2019-01-09T23:21:00.598Z,101776.29
2019-01-09T23:26:22.769Z,101793.70
2019-01-09T23:31:25.437Z,101815.80
2019-01-09T23:36:47.614Z,101785.97
2019-01-09T23:42:09.889Z,101798.05
2019-01-09T23:47:32.065Z,101803.52
2019-01-09T23:52:54.236Z,101800.93
2019-01-09T23:58:09.529Z,101823.01
